Time;durP1;ratioP1;P1;durP2;ratioP2;P2;SDS_P1;SDS_P2;PMS_P1;PMS_P2;Temp;Humidity;BMP_temperature;BMP_pressure;BME280_temperature;BME280_humidity;BME280_pressure;Samples;Min_cycle;Max_cycle;Signal;HPM_P1;HPM_P2
2023/10/31 00:03:31;;;;;;;2.08;1.50;;;;;;;;;;10027424;28;20076;-74
2023/10/31 00:08:24;;;;;;;5.13;1.60;;;;;;;;;;10033530;28;20074;-71
2023/10/31 00:13:16;;;;;;;6.20;2.00;;;;;;;;;;10049604;28;20077;-71
2023/10/31 00:18:07;;;;;;;3.72;1.70;;;;;;;;;;10035042;28;20415;-71
2023/10/31 00:22:59;;;;;;;3.38;2.13;;;;;;;;;;10034142;28;20468;-71
2023/10/31 00:27:51;;;;;;;3.17;1.98;;;;;;;;;;10034016;28;20045;-72
2023/10/31 00:32:43;;;;;;;5.28;2.03;;;;;;;;;;10032999;28;20038;-70
2023/10/31 00:37:35;;;;;;;3.28;1.50;;;;;;;;;;10034379;28;20077;-72
2023/10/31 00:42:27;;;;;;;33.92;24.75;;;;;;;;;;10033536;28;20053;-72
2023/10/31 00:47:19;;;;;;;2.85;2.30;;;;;;;;;;10034038;28;20077;-71
2023/10/31 00:52:13;;;;;;;5.53;3.17;;;;;;;;;;10033245;28;20495;-71
2023/10/31 00:57:05;;;;;;;6.88;3.13;;;;;;;;;;10048121;28;20065;-71
2023/10/31 01:01:58;;;;;;;3.13;2.47;;;;;;;;;;10032567;28;20096;-71
2023/10/31 01:06:49;;;;;;;4.22;2.22;;;;;;;;;;10047974;28;20096;-71
2023/10/31 01:11:41;;;;;;;2.40;1.80;;;;;;;;;;10031957;28;20077;-71
2023/10/31 01:16:33;;;;;;;1.98;1.52;;;;;;;;;;10048460;28;20050;-72
2023/10/31 01:21:25;;;;;;;7.47;2.85;;;;;;;;;;10032261;28;20089;-72
2023/10/31 01:26:17;;;;;;;2.95;1.65;;;;;;;;;;10046991;28;20100;-72
2023/10/31 01:31:09;;;;;;;5.10;1.70;;;;;;;;;;10031746;28;20130;-71
2023/10/31 01:36:01;;;;;;;2.35;1.60;;;;;;;;;;10032713;28;20353;-72
2023/10/31 01:40:53;;;;;;;7.10;1.95;;;;;;;;;;10030959;28;20038;-70
2023/10/31 01:45:45;;;;;;;9.57;1.88;;;;;;;;;;10030129;28;20077;-71
2023/10/31 01:50:37;;;;;;;2.55;1.65;;;;;;;;;;10046046;28;20066;-71
2023/10/31 01:55:29;;;;;;;1.67;1.48;;;;;;;;;;10031467;28;20029;-72
2023/10/31 02:00:21;;;;;;;4.82;1.90;;;;;;;;;;10029215;28;20050;-72
2023/10/31 02:05:13;;;;;;;2.50;1.70;;;;;;;;;;10046245;28;20057;-71
2023/10/31 02:10:06;;;;;;;9.90;2.33;;;;;;;;;;10031028;28;20034;-73
2023/10/31 02:14:58;;;;;;;2.55;1.33;;;;;;;;;;10030323;28;20042;-72
2023/10/31 02:19:50;;;;;;;1.77;1.15;;;;;;;;;;10029246;28;20049;-71
2023/10/31 02:24:42;;;;;;;10.05;2.47;;;;;;;;;;10044828;28;20046;-72
2023/10/31 02:29:34;;;;;;;5.55;1.50;;;;;;;;;;10029335;28;20456;-71
2023/10/31 02:34:26;;;;;;;8.45;1.58;;;;;;;;;;10031286;28;20401;-70
2023/10/31 02:39:18;;;;;;;1.05;1.02;;;;;;;;;;10068051;28;20637;-73
2023/10/31 02:44:09;;;;;;;3.92;1.20;;;;;;;;;;10031292;28;20052;-72
2023/10/31 02:49:01;;;;;;;2.13;1.33;;;;;;;;;;10029684;28;20045;-71
2023/10/31 02:53:53;;;;;;;4.18;1.85;;;;;;;;;;10048014;28;20829;-71
2023/10/31 02:58:45;;;;;;;6.13;2.65;;;;;;;;;;10028924;28;20041;-71
2023/10/31 03:03:37;;;;;;;20.63;14.07;;;;;;;;;;10045629;28;20051;-72
2023/10/31 03:08:29;;;;;;;7.03;3.70;;;;;;;;;;10029507;28;20179;-72
2023/10/31 03:13:21;;;;;;;4.63;1.33;;;;;;;;;;10045790;28;20045;-71
2023/10/31 03:18:16;;;;;;;6.93;2.13;;;;;;;;;;10037901;28;20053;-71
2023/10/31 03:23:08;;;;;;;32.95;21.13;;;;;;;;;;10027974;28;20049;-73
2023/10/31 03:28:02;;;;;;;5.38;3.15;;;;;;;;;;10043618;28;20050;-70
2023/10/31 03:32:53;;;;;;;7.03;5.57;;;;;;;;;;10028667;28;20045;-71
2023/10/31 03:37:45;;;;;;;9.80;7.28;;;;;;;;;;10043602;28;20129;-72
2023/10/31 03:42:37;;;;;;;4.03;1.75;;;;;;;;;;10034373;28;20381;-72
2023/10/31 03:47:29;;;;;;;4.38;1.95;;;;;;;;;;10036341;28;20117;-72
2023/10/31 03:52:21;;;;;;;4.63;1.40;;;;;;;;;;10035805;28;20128;-72
2023/10/31 03:57:13;;;;;;;5.60;1.63;;;;;;;;;;10038038;28;20073;-71
2023/10/31 04:02:05;;;;;;;32.38;20.77;;;;;;;;;;10033515;28;20054;-71
2023/10/31 04:06:57;;;;;;;21.85;13.70;;;;;;;;;;10034308;28;20149;-72
2023/10/31 04:11:49;;;;;;;4.30;2.15;;;;;;;;;;10034522;28;20589;-72
2023/10/31 04:16:45;;;;;;;3.92;1.50;;;;;;;;;;10034079;28;20357;-72
2023/10/31 04:21:37;;;;;;;2.38;1.48;;;;;;;;;;10034344;28;20096;-70
2023/10/31 04:26:29;;;;;;;3.45;2.17;;;;;;;;;;10034444;28;20041;-72
2023/10/31 04:31:21;;;;;;;4.93;4.32;;;;;;;;;;10034037;28;20099;-72
2023/10/31 04:36:29;;;;;;;7.28;5.97;;;;;;;;;;10034253;28;20375;-71
2023/10/31 04:41:21;;;;;;;5.95;5.10;;;;;;;;;;10033937;28;20061;-72
2023/10/31 04:46:13;;;;;;;2.40;2.20;;;;;;;;;;10034643;28;20133;-70
2023/10/31 04:51:05;;;;;;;7.88;2.60;;;;;;;;;;10033452;28;20066;-70
2023/10/31 04:55:56;;;;;;;8.20;3.45;;;;;;;;;;10032193;28;20045;-71
2023/10/31 05:00:48;;;;;;;4.97;3.08;;;;;;;;;;10032536;28;20105;-72
2023/10/31 05:05:40;;;;;;;8.23;3.20;;;;;;;;;;10033101;28;20050;-72
2023/10/31 05:10:32;;;;;;;6.47;3.63;;;;;;;;;;10032599;28;20420;-72
2023/10/31 05:15:24;;;;;;;5.32;2.03;;;;;;;;;;10032521;28;20041;-72
2023/10/31 05:20:16;;;;;;;48.97;32.03;;;;;;;;;;10032146;28;20046;-71
2023/10/31 05:25:08;;;;;;;10.48;2.13;;;;;;;;;;10032164;28;20050;-72
2023/10/31 05:30:00;;;;;;;1.98;1.02;;;;;;;;;;10032652;28;20088;-72
2023/10/31 05:34:52;;;;;;;2.53;1.52;;;;;;;;;;10047092;28;20060;-72
2023/10/31 05:39:44;;;;;;;3.08;1.17;;;;;;;;;;10032075;28;20053;-72
2023/10/31 05:44:35;;;;;;;4.93;1.67;;;;;;;;;;10031774;28;20045;-71
2023/10/31 05:49:27;;;;;;;3.22;2.00;;;;;;;;;;10031604;28;20049;-72
2023/10/31 05:54:19;;;;;;;2.97;1.00;;;;;;;;;;10031211;28;20900;-72
2023/10/31 05:59:11;;;;;;;2.55;1.25;;;;;;;;;;10030785;28;20473;-71
2023/10/31 06:04:03;;;;;;;3.58;1.58;;;;;;;;;;10040733;28;20068;-73
2023/10/31 06:08:55;;;;;;;3.63;0.90;;;;;;;;;;10052307;28;20052;-72
2023/10/31 06:13:48;;;;;;;2.10;0.90;;;;;;;;;;10064548;28;20048;-71
2023/10/31 06:18:40;;;;;;;4.75;1.38;;;;;;;;;;10065141;28;20059;-68
2023/10/31 06:23:32;;;;;;;1.50;1.10;;;;;;;;;;10063153;28;20079;-72
2023/10/31 06:28:24;;;;;;;1.85;1.20;;;;;;;;;;10051908;28;20143;-74
2023/10/31 06:33:15;;;;;;;3.55;0.90;;;;;;;;;;10049864;28;20056;-74
2023/10/31 06:38:07;;;;;;;5.38;1.67;;;;;;;;;;10052043;28;20092;-71
2023/10/31 06:43:00;;;;;;;4.75;1.48;;;;;;;;;;10064542;28;20991;-72
2023/10/31 06:47:53;;;;;;;9.00;1.10;;;;;;;;;;10064998;28;20460;-72
2023/10/31 06:52:44;;;;;;;4.07;1.88;;;;;;;;;;10064053;28;20107;-72
2023/10/31 06:57:36;;;;;;;4.90;1.40;;;;;;;;;;10064615;28;20452;-72
2023/10/31 07:02:28;;;;;;;3.45;1.42;;;;;;;;;;10062178;28;20045;-72
2023/10/31 07:07:20;;;;;;;3.20;1.23;;;;;;;;;;10062389;28;20041;-73
2023/10/31 07:12:12;;;;;;;3.72;1.23;;;;;;;;;;10042677;28;20049;-73
2023/10/31 07:17:04;;;;;;;4.43;1.40;;;;;;;;;;10026975;28;20042;-72
2023/10/31 07:21:56;;;;;;;254.73;30.85;;;;;;;;;;10026179;28;20061;-73
2023/10/31 07:26:48;;;;;;;66.03;12.60;;;;;;;;;;10026889;28;20038;-73
2023/10/31 07:31:40;;;;;;;4.43;0.90;;;;;;;;;;10027677;28;20085;-70
2023/10/31 07:36:32;;;;;;;1.67;0.82;;;;;;;;;;10026907;28;20543;-72
2023/10/31 07:41:24;;;;;;;1.67;1.42;;;;;;;;;;10025696;28;20165;-70
2023/10/31 07:46:16;;;;;;;3.90;1.25;;;;;;;;;;10025219;28;20060;-70
2023/10/31 07:51:08;;;;;;;0.60;0.60;;;;;;;;;;10025933;28;20480;-71
2023/10/31 07:56:00;;;;;;;2.10;2.00;;;;;;;;;;10027855;28;20498;-71
2023/10/31 08:00:52;;;;;;;1.90;1.45;;;;;;;;;;10025832;28;20049;-69
2023/10/31 08:05:43;;;;;;;3.03;2.83;;;;;;;;;;10025875;28;20117;-69
2023/10/31 08:10:35;;;;;;;1.00;1.00;;;;;;;;;;10024827;28;20046;-70
2023/10/31 08:15:28;;;;;;;70.40;15.93;;;;;;;;;;10025072;28;20044;-68
2023/10/31 08:20:20;;;;;;;1.48;1.00;;;;;;;;;;10025871;28;20056;-71
2023/10/31 08:25:12;;;;;;;1.45;0.90;;;;;;;;;;10036545;28;20061;-71
2023/10/31 08:30:05;;;;;;;0.80;0.70;;;;;;;;;;10030894;28;20127;-71
2023/10/31 08:34:57;;;;;;;153.20;20.17;;;;;;;;;;10046394;28;20512;-72
2023/10/31 08:39:49;;;;;;;39.00;12.20;;;;;;;;;;10029545;28;20078;-71
2023/10/31 08:44:41;;;;;;;8.65;7.35;;;;;;;;;;10028372;28;20038;-70
2023/10/31 08:49:33;;;;;;;0.93;0.90;;;;;;;;;;10028616;28;20430;-71
2023/10/31 08:54:25;;;;;;;3.58;2.17;;;;;;;;;;10031207;28;20416;-70
2023/10/31 08:59:18;;;;;;;14.45;1.35;;;;;;;;;;10031452;28;20060;-69
2023/10/31 09:04:10;;;;;;;0.70;0.70;;;;;;;;;;10028805;28;20480;-70
2023/10/31 09:09:03;;;;;;;1.17;1.17;;;;;;;;;;10036376;28;20471;-70
2023/10/31 09:13:55;;;;;;;71.00;13.45;;;;;;;;;;10029891;28;20053;-70
2023/10/31 09:18:47;;;;;;;0.70;0.70;;;;;;;;;;10045260;28;20717;-70
2023/10/31 09:23:39;;;;;;;0.70;0.70;;;;;;;;;;10033474;28;20136;-71
2023/10/31 09:28:31;;;;;;;1.85;0.70;;;;;;;;;;10030831;28;20456;-69
2023/10/31 09:33:23;;;;;;;0.52;0.50;;;;;;;;;;10029262;28;20129;-70
2023/10/31 09:38:15;;;;;;;2.67;0.70;;;;;;;;;;10031068;28;20038;-70
2023/10/31 09:43:07;;;;;;;0.82;0.63;;;;;;;;;;10029012;28;20451;-71
2023/10/31 09:48:01;;;;;;;2.05;0.73;;;;;;;;;;10029907;28;20362;-71
2023/10/31 09:52:54;;;;;;;1.20;1.10;;;;;;;;;;10029201;28;20042;-70
2023/10/31 09:57:46;;;;;;;0.63;0.63;;;;;;;;;;10041600;28;20046;-72
2023/10/31 10:02:38;;;;;;;3.00;1.10;;;;;;;;;;10044096;28;20088;-70
2023/10/31 10:07:30;;;;;;;8.13;2.45;;;;;;;;;;10026802;28;20330;-71
2023/10/31 10:12:22;;;;;;;0.60;0.60;;;;;;;;;;10028505;28;20046;-71
2023/10/31 10:17:21;;;;;;;1.10;0.70;;;;;;;;;;10026892;28;20080;-71
2023/10/31 10:22:14;;;;;;;0.93;0.93;;;;;;;;;;10030907;28;20049;-70
2023/10/31 10:27:08;;;;;;;2.90;2.00;;;;;;;;;;10026986;28;20469;-72
2023/10/31 10:32:00;;;;;;;2.17;2.00;;;;;;;;;;10028607;28;20038;-73
2023/10/31 10:36:53;;;;;;;2.53;2.22;;;;;;;;;;10025634;28;20463;-74
2023/10/31 10:41:47;;;;;;;5.00;2.95;;;;;;;;;;10043199;28;20041;-74
2023/10/31 10:46:40;;;;;;;2.13;1.75;;;;;;;;;;10042772;28;20418;-75
2023/10/31 10:52:01;;;;;;;3.75;2.55;;;;;;;;;;10025365;28;20464;-74
2023/10/31 10:56:56;;;;;;;3.20;1.67;;;;;;;;;;10040441;28;20046;-74
2023/10/31 11:01:49;;;;;;;6.10;2.70;;;;;;;;;;10026780;28;20128;-75
2023/10/31 11:06:41;;;;;;;2.78;0.95;;;;;;;;;;10024875;28;20061;-75
2023/10/31 11:11:33;;;;;;;7.75;4.70;;;;;;;;;;10024417;28;20141;-74
2023/10/31 11:16:41;;;;;;;2.70;2.10;;;;;;;;;;10026208;28;20052;-75
2023/10/31 11:21:34;;;;;;;0.68;0.68;;;;;;;;;;10040199;28;20049;-75
2023/10/31 11:26:27;;;;;;;1.10;0.85;;;;;;;;;;10028408;28;20050;-76
2023/10/31 11:31:20;;;;;;;1.52;1.42;;;;;;;;;;10024986;28;20460;-75
2023/10/31 11:36:12;;;;;;;1.77;1.55;;;;;;;;;;10040073;28;20050;-76
2023/10/31 11:41:04;;;;;;;3.13;1.00;;;;;;;;;;10025702;28;20045;-77
2023/10/31 11:46:00;;;;;;;0.60;0.60;;;;;;;;;;10025383;28;20038;-76
2023/10/31 11:50:52;;;;;;;1.23;1.02;;;;;;;;;;10025308;28;20484;-76
2023/10/31 11:55:47;;;;;;;1.73;1.02;;;;;;;;;;10024823;28;20091;-76
2023/10/31 12:00:39;;;;;;;0.65;0.65;;;;;;;;;;10024995;28;20048;-76
2023/10/31 12:05:31;;;;;;;1.23;0.88;;;;;;;;;;10034761;28;20041;-76
2023/10/31 12:10:26;;;;;;;1.10;1.00;;;;;;;;;;10032266;28;20048;-75
2023/10/31 12:15:18;;;;;;;43.70;7.00;;;;;;;;;;10034188;28;20042;-75
2023/10/31 12:20:11;;;;;;;1.13;0.80;;;;;;;;;;10038604;28;20042;-75
2023/10/31 12:25:12;;;;;;;1.73;0.80;;;;;;;;;;10032462;28;20038;-77
2023/10/31 12:30:04;;;;;;;1.38;0.80;;;;;;;;;;10033145;28;20056;-75
2023/10/31 12:34:56;;;;;;;1.23;0.70;;;;;;;;;;10040598;28;20066;-72
2023/10/31 12:39:50;;;;;;;3.13;1.23;;;;;;;;;;10047548;28;20064;-76
2023/10/31 12:44:42;;;;;;;1.27;0.90;;;;;;;;;;10050470;28;20466;-76
2023/10/31 12:49:34;;;;;;;2.90;1.00;;;;;;;;;;10046478;28;20050;-76
2023/10/31 12:54:37;;;;;;;3.47;1.17;;;;;;;;;;10035738;28;20045;-75
2023/10/31 12:59:29;;;;;;;4.75;1.40;;;;;;;;;;10043500;28;20049;-74
2023/10/31 13:04:28;;;;;;;4.82;1.67;;;;;;;;;;10034516;28;20058;-75
2023/10/31 13:09:42;;;;;;;4.72;1.17;;;;;;;;;;10031860;28;20073;-76
2023/10/31 13:14:36;;;;;;;4.63;2.03;;;;;;;;;;10040074;28;20042;-75
2023/10/31 13:19:28;;;;;;;6.63;2.05;;;;;;;;;;10033969;28;20048;-73
2023/10/31 13:24:20;;;;;;;3.33;1.20;;;;;;;;;;10032842;28;20045;-76
2023/10/31 13:29:12;;;;;;;5.45;1.33;;;;;;;;;;10035571;28;20038;-75
2023/10/31 13:34:04;;;;;;;7.53;1.98;;;;;;;;;;10030500;28;20038;-76
2023/10/31 13:38:56;;;;;;;7.13;1.75;;;;;;;;;;10035012;28;20103;-75
2023/10/31 13:43:48;;;;;;;7.10;2.13;;;;;;;;;;10049620;28;20121;-75
2023/10/31 13:48:40;;;;;;;11.88;2.22;;;;;;;;;;10039896;28;20120;-75
2023/10/31 13:53:32;;;;;;;5.93;1.55;;;;;;;;;;10031472;28;20132;-75
2023/10/31 13:58:24;;;;;;;5.25;2.95;;;;;;;;;;10044750;28;20053;-75
2023/10/31 14:03:16;;;;;;;8.98;2.22;;;;;;;;;;10045529;28;20472;-75
2023/10/31 14:08:09;;;;;;;3.20;1.48;;;;;;;;;;10042764;28;20048;-75
2023/10/31 14:13:01;;;;;;;6.30;1.52;;;;;;;;;;10030169;28;20104;-76
2023/10/31 14:17:53;;;;;;;2.60;1.17;;;;;;;;;;10041297;28;20452;-76
2023/10/31 14:22:49;;;;;;;4.10;1.40;;;;;;;;;;10047219;28;20048;-74
2023/10/31 14:27:43;;;;;;;5.13;1.88;;;;;;;;;;10026407;28;20418;-73
2023/10/31 14:32:35;;;;;;;10.88;2.45;;;;;;;;;;10040204;28;20118;-74
2023/10/31 14:37:27;;;;;;;5.38;2.25;;;;;;;;;;10048139;28;20361;-75
2023/10/31 14:42:20;;;;;;;6.88;1.80;;;;;;;;;;10037557;28;20042;-71
2023/10/31 14:47:12;;;;;;;3.90;1.50;;;;;;;;;;10044145;28;20117;-74
2023/10/31 14:52:08;;;;;;;3.88;1.30;;;;;;;;;;10040863;28;20080;-74
2023/10/31 14:57:01;;;;;;;3.05;1.27;;;;;;;;;;10030542;28;20121;-73
2023/10/31 15:01:53;;;;;;;5.82;1.38;;;;;;;;;;10036286;28;20053;-72
2023/10/31 15:06:45;;;;;;;4.38;1.52;;;;;;;;;;10024286;28;20041;-74
2023/10/31 15:11:37;;;;;;;6.97;3.00;;;;;;;;;;10030118;28;20045;-72
2023/10/31 15:16:30;;;;;;;6.68;2.20;;;;;;;;;;10030852;28;20042;-74
2023/10/31 15:21:22;;;;;;;4.15;1.50;;;;;;;;;;10022819;28;20377;-73
2023/10/31 15:26:14;;;;;;;6.50;2.08;;;;;;;;;;10031535;28;20046;-74
2023/10/31 15:31:06;;;;;;;4.82;2.00;;;;;;;;;;10024650;28;20381;-73
2023/10/31 15:35:58;;;;;;;5.28;1.30;;;;;;;;;;10025790;28;20092;-75
2023/10/31 15:40:50;;;;;;;4.88;1.60;;;;;;;;;;10034006;28;20140;-73
2023/10/31 15:45:48;;;;;;;11.17;1.87;;;;;;;;;;10032763;28;20053;-75
2023/10/31 15:50:41;;;;;;;6.07;1.58;;;;;;;;;;10033079;28;20301;-71
2023/10/31 15:55:33;;;;;;;4.35;1.52;;;;;;;;;;10033636;28;20488;-72
2023/10/31 16:00:27;;;;;;;6.55;1.42;;;;;;;;;;10032153;28;20081;-73
2023/10/31 16:05:19;;;;;;;3.30;1.52;;;;;;;;;;10032023;28;20511;-72
2023/10/31 16:10:11;;;;;;;6.85;3.13;;;;;;;;;;10032720;28;20038;-72
2023/10/31 16:15:03;;;;;;;4.63;2.40;;;;;;;;;;10032259;28;20073;-73
2023/10/31 16:19:56;;;;;;;9.02;2.55;;;;;;;;;;10032346;28;20056;-73
2023/10/31 16:24:48;;;;;;;6.32;2.10;;;;;;;;;;10034156;28;20054;-72
2023/10/31 16:29:40;;;;;;;5.13;1.65;;;;;;;;;;10030964;28;20046;-72
2023/10/31 16:34:32;;;;;;;6.25;2.22;;;;;;;;;;10032960;28;20506;-73
2023/10/31 16:39:25;;;;;;;25.45;5.25;;;;;;;;;;10031555;28;20049;-72
2023/10/31 16:44:16;;;;;;;5.10;2.08;;;;;;;;;;10033973;28;20420;-72
2023/10/31 16:49:09;;;;;;;16.23;2.78;;;;;;;;;;10029056;28;20088;-73
2023/10/31 16:54:01;;;;;;;5.05;2.22;;;;;;;;;;10032848;28;20045;-71
2023/10/31 16:58:53;;;;;;;5.38;1.67;;;;;;;;;;10030688;28;20096;-74
2023/10/31 17:03:45;;;;;;;3.92;2.03;;;;;;;;;;10029039;28;20052;-73
2023/10/31 17:08:37;;;;;;;5.03;2.38;;;;;;;;;;10031126;28;20053;-73
2023/10/31 17:13:31;;;;;;;4.65;2.15;;;;;;;;;;10031052;28;20046;-71
2023/10/31 17:18:23;;;;;;;5.25;2.38;;;;;;;;;;10029627;28;20171;-69
2023/10/31 17:23:16;;;;;;;6.50;2.05;;;;;;;;;;10030367;28;20046;-72
2023/10/31 17:28:08;;;;;;;8.38;2.85;;;;;;;;;;10030159;28;20041;-74
2023/10/31 17:33:00;;;;;;;7.35;2.70;;;;;;;;;;10027876;28;20384;-72
2023/10/31 17:37:52;;;;;;;6.45;2.08;;;;;;;;;;10028878;28;20080;-72
2023/10/31 17:42:44;;;;;;;3.42;1.92;;;;;;;;;;10028523;28;20053;-73
2023/10/31 17:47:36;;;;;;;4.80;1.73;;;;;;;;;;10034210;28;20196;-74
2023/10/31 17:52:28;;;;;;;6.80;1.77;;;;;;;;;;10024734;28;20143;-74
2023/10/31 17:57:20;;;;;;;6.15;2.63;;;;;;;;;;10033521;28;21464;-74
2023/10/31 18:02:14;;;;;;;5.47;1.83;;;;;;;;;;10030965;28;20371;-76
2023/10/31 18:07:06;;;;;;;8.85;2.38;;;;;;;;;;10028765;28;20062;-76
2023/10/31 18:11:58;;;;;;;13.50;2.60;;;;;;;;;;10039843;28;20066;-75
2023/10/31 18:16:50;;;;;;;3.40;1.60;;;;;;;;;;10043032;28;20076;-75
2023/10/31 18:21:43;;;;;;;7.85;1.92;;;;;;;;;;10041504;28;20053;-72
2023/10/31 18:26:40;;;;;;;5.80;1.85;;;;;;;;;;10039987;28;20045;-76
2023/10/31 18:31:32;;;;;;;9.02;3.45;;;;;;;;;;10038379;28;20046;-75
2023/10/31 18:36:27;;;;;;;5.10;1.70;;;;;;;;;;10046560;28;20049;-75
2023/10/31 18:41:29;;;;;;;5.97;1.70;;;;;;;;;;10039810;28;20049;-76
2023/10/31 18:46:21;;;;;;;5.63;2.22;;;;;;;;;;10063953;28;20472;-75
2023/10/31 18:51:13;;;;;;;6.07;2.22;;;;;;;;;;10062004;28;20123;-76
2023/10/31 18:56:06;;;;;;;5.63;2.38;;;;;;;;;;10061809;28;20464;-75
2023/10/31 19:00:58;;;;;;;6.28;1.83;;;;;;;;;;10061652;28;20475;-74
2023/10/31 19:05:50;;;;;;;7.93;2.28;;;;;;;;;;10060385;28;20485;-76
2023/10/31 19:10:47;;;;;;;4.47;1.70;;;;;;;;;;10027264;28;20365;-74
2023/10/31 19:15:39;;;;;;;4.10;1.90;;;;;;;;;;10026840;28;20070;-74
2023/10/31 19:20:31;;;;;;;9.45;2.10;;;;;;;;;;10025926;28;20077;-73
2023/10/31 19:25:25;;;;;;;11.73;1.80;;;;;;;;;;10026023;28;20137;-72
2023/10/31 19:30:17;;;;;;;6.20;2.20;;;;;;;;;;10025643;28;20116;-75
2023/10/31 19:35:13;;;;;;;5.80;1.95;;;;;;;;;;10026125;28;20053;-75
2023/10/31 19:40:05;;;;;;;3.90;1.58;;;;;;;;;;10041714;28;20046;-74
2023/10/31 19:44:58;;;;;;;2.50;1.63;;;;;;;;;;10026376;28;20097;-75
2023/10/31 19:49:50;;;;;;;4.38;1.80;;;;;;;;;;10025646;28;20037;-73
2023/10/31 19:54:42;;;;;;;6.85;1.55;;;;;;;;;;10036280;28;20045;-75
2023/10/31 19:59:38;;;;;;;4.80;2.00;;;;;;;;;;10028940;28;20125;-75
2023/10/31 20:04:30;;;;;;;2.88;1.58;;;;;;;;;;10025172;28;20089;-75
2023/10/31 20:09:22;;;;;;;7.18;1.92;;;;;;;;;;10025374;28;20045;-74
2023/10/31 20:14:14;;;;;;;4.38;1.92;;;;;;;;;;10025717;28;20077;-74
2023/10/31 20:19:07;;;;;;;2.97;1.83;;;;;;;;;;10024521;28;20050;-75
2023/10/31 20:24:00;;;;;;;4.72;2.28;;;;;;;;;;10030338;28;20034;-70
2023/10/31 20:28:51;;;;;;;3.78;2.33;;;;;;;;;;10032326;28;20136;-74
2023/10/31 20:33:43;;;;;;;4.22;2.05;;;;;;;;;;10033321;28;20053;-75
2023/10/31 20:38:35;;;;;;;6.07;2.83;;;;;;;;;;10032670;28;20100;-74
2023/10/31 20:43:27;;;;;;;4.15;2.33;;;;;;;;;;10031251;28;20045;-75
2023/10/31 20:48:20;;;;;;;8.07;3.88;;;;;;;;;;10032503;28;20049;-74
2023/10/31 20:53:11;;;;;;;5.85;3.65;;;;;;;;;;10032066;28;20060;-74
2023/10/31 20:58:03;;;;;;;7.32;4.07;;;;;;;;;;10030807;28;20054;-74
2023/10/31 21:02:55;;;;;;;4.90;2.05;;;;;;;;;;10030674;28;20038;-75
2023/10/31 21:07:47;;;;;;;5.80;2.50;;;;;;;;;;10031427;28;20049;-77
2023/10/31 21:12:39;;;;;;;4.75;2.35;;;;;;;;;;10031317;28;20041;-73
2023/10/31 21:17:31;;;;;;;8.77;4.00;;;;;;;;;;10029834;28;20128;-72
2023/10/31 21:22:23;;;;;;;12.40;5.70;;;;;;;;;;10030633;28;20042;-73
2023/10/31 21:27:15;;;;;;;6.85;3.70;;;;;;;;;;10029577;28;20064;-72
2023/10/31 21:32:07;;;;;;;8.02;3.80;;;;;;;;;;10031655;28;20045;-73
2023/10/31 21:36:59;;;;;;;13.50;3.85;;;;;;;;;;10029107;28;20499;-71
2023/10/31 21:41:51;;;;;;;14.18;6.10;;;;;;;;;;10035838;28;20141;-73
2023/10/31 21:46:44;;;;;;;11.68;5.93;;;;;;;;;;10035975;28;20355;-73
2023/10/31 21:51:36;;;;;;;12.27;6.15;;;;;;;;;;10030651;28;20076;-73
2023/10/31 21:56:28;;;;;;;97.20;59.08;;;;;;;;;;10026393;28;20046;-70
2023/10/31 22:01:20;;;;;;;258.77;135.98;;;;;;;;;;10051960;28;20043;-74
2023/10/31 22:06:12;;;;;;;246.25;164.18;;;;;;;;;;10065445;28;20049;-74
2023/10/31 22:11:04;;;;;;;14.07;8.70;;;;;;;;;;10065834;28;20390;-72
2023/10/31 22:15:56;;;;;;;9.70;7.15;;;;;;;;;;10064605;28;20042;-73
2023/10/31 22:20:49;;;;;;;4.93;2.67;;;;;;;;;;10060534;28;20072;-72
2023/10/31 22:25:41;;;;;;;8.07;3.17;;;;;;;;;;10066131;28;20054;-73
2023/10/31 22:30:33;;;;;;;6.63;2.40;;;;;;;;;;10065337;28;20045;-73
2023/10/31 22:35:25;;;;;;;8.82;3.38;;;;;;;;;;10065454;28;20045;-73
2023/10/31 22:40:17;;;;;;;3.92;2.40;;;;;;;;;;10065358;28;20045;-72
2023/10/31 22:45:09;;;;;;;7.68;2.95;;;;;;;;;;10064418;28;20523;-74
2023/10/31 22:50:01;;;;;;;5.90;2.17;;;;;;;;;;10064924;28;20111;-73
2023/10/31 22:54:53;;;;;;;4.68;2.20;;;;;;;;;;10063093;28;20065;-73
2023/10/31 22:59:45;;;;;;;5.72;2.00;;;;;;;;;;10051879;28;20053;-73
2023/10/31 23:04:38;;;;;;;4.93;2.75;;;;;;;;;;10060173;28;20461;-71
2023/10/31 23:09:32;;;;;;;5.65;2.42;;;;;;;;;;10055916;28;20045;-73
2023/10/31 23:14:24;;;;;;;5.10;2.28;;;;;;;;;;10059980;28;20100;-73
2023/10/31 23:19:16;;;;;;;6.78;2.10;;;;;;;;;;10062921;28;20080;-71
2023/10/31 23:24:08;;;;;;;4.50;2.40;;;;;;;;;;10048266;28;20100;-74
2023/10/31 23:29:01;;;;;;;2.72;2.05;;;;;;;;;;10026237;28;20423;-72
2023/10/31 23:33:53;;;;;;;6.28;2.42;;;;;;;;;;10033217;28;20052;-73
2023/10/31 23:38:45;;;;;;;7.63;3.92;;;;;;;;;;10028414;28;20534;-74
2023/10/31 23:43:37;;;;;;;7.60;2.60;;;;;;;;;;10035273;28;20085;-73
2023/10/31 23:48:29;;;;;;;5.07;2.20;;;;;;;;;;10030518;28;20044;-73
2023/10/31 23:53:21;;;;;;;4.03;2.25;;;;;;;;;;10026757;28;20136;-72
2023/10/31 23:58:14;;;;;;;5.22;2.28;;;;;;;;;;10038872;28;20050;-74
